createdAt,value
2018-09-17T00:00:04.058Z,15.19
2018-09-17T00:02:32.515Z,15.14
2018-09-17T00:05:01.097Z,15.15
2018-09-17T00:07:29.582Z,15.10
2018-09-17T00:09:58.405Z,15.04
2018-09-17T00:12:26.941Z,14.95
2018-09-17T00:14:55.410Z,14.89
2018-09-17T00:17:23.931Z,14.89
2018-09-17T00:19:52.376Z,14.93
2018-09-17T00:22:20.920Z,14.89
2018-09-17T00:24:49.350Z,14.86
2018-09-17T00:27:17.865Z,14.78
2018-09-17T00:29:46.306Z,14.74
2018-09-17T00:32:15.722Z,14.74
2018-09-17T00:34:44.266Z,14.75
2018-09-17T00:37:12.673Z,14.71
2018-09-17T00:39:41.196Z,14.66
2018-09-17T00:42:09.657Z,14.59
2018-09-17T00:44:38.146Z,14.53
2018-09-17T00:47:06.630Z,14.50
2018-09-17T00:49:35.109Z,14.43
2018-09-17T00:52:03.498Z,14.40
2018-09-17T00:54:32.057Z,14.35
2018-09-17T00:57:00.824Z,14.28
2018-09-17T00:59:29.366Z,14.25
2018-09-17T01:01:57.878Z,14.23
2018-09-17T01:04:26.667Z,14.19
2018-09-17T01:06:55.077Z,14.12
2018-09-17T01:09:28.817Z,14.06
2018-09-17T01:11:57.296Z,13.99
2018-09-17T01:14:25.765Z,13.97
2018-09-17T01:16:54.425Z,13.92
2018-09-17T01:19:22.949Z,13.94
2018-09-17T01:21:51.514Z,13.92
2018-09-17T01:24:20.017Z,13.88
2018-09-17T01:26:48.574Z,13.90
2018-09-17T01:29:17.087Z,13.90
2018-09-17T01:31:45.521Z,13.85
2018-09-17T01:34:14.031Z,13.85
2018-09-17T01:36:42.478Z,13.85
2018-09-17T01:39:12.097Z,13.87
2018-09-17T01:41:40.589Z,13.87
2018-09-17T01:44:09.289Z,13.91
2018-09-17T01:46:38.033Z,13.93
2018-09-17T01:49:06.735Z,14.02
2018-09-17T01:51:35.273Z,13.94
2018-09-17T01:54:03.692Z,13.88
2018-09-17T01:56:32.193Z,13.85
2018-09-17T01:59:00.889Z,13.81
2018-09-17T02:01:29.389Z,13.80
2018-09-17T02:03:57.870Z,13.82
2018-09-17T02:06:26.370Z,13.87
2018-09-17T02:08:54.830Z,13.82
2018-09-17T02:11:23.286Z,13.74
2018-09-17T02:13:51.786Z,13.64
2018-09-17T02:16:20.273Z,13.63
2018-09-17T02:18:48.764Z,13.62
2018-09-17T02:21:17.237Z,13.55
2018-09-17T02:23:45.671Z,13.56
2018-09-17T02:26:14.269Z,13.64
2018-09-17T02:28:42.742Z,13.65
2018-09-17T02:31:11.254Z,13.63
2018-09-17T02:33:39.717Z,13.52
2018-09-17T02:36:08.205Z,13.46
2018-09-17T02:38:36.677Z,13.51
2018-09-17T02:41:05.218Z,13.56
2018-09-17T02:43:33.633Z,13.62
2018-09-17T02:46:02.154Z,13.59
2018-09-17T02:48:30.577Z,13.54
2018-09-17T02:50:59.274Z,13.54
2018-09-17T02:53:27.955Z,13.46
2018-09-17T02:55:56.374Z,13.43
2018-09-17T02:58:24.828Z,13.39
2018-09-17T03:00:53.417Z,13.43
2018-09-17T03:03:21.898Z,13.37
2018-09-17T03:05:53.867Z,13.35
2018-09-17T03:08:22.346Z,13.23
2018-09-17T03:10:50.846Z,13.22
2018-09-17T03:13:19.365Z,13.18
2018-09-17T03:15:55.062Z,13.14
2018-09-17T03:18:36.126Z,13.11
2018-09-17T03:21:05.849Z,13.04
2018-09-17T03:23:36.050Z,13.04
2018-09-17T03:26:04.930Z,13.09
2018-09-17T03:28:33.411Z,13.08
2018-09-17T03:31:01.994Z,13.06
2018-09-17T03:33:30.614Z,13.00
2018-09-17T03:35:59.285Z,13.05
2018-09-17T03:38:34.946Z,13.09
2018-09-17T03:41:05.245Z,13.06
2018-09-17T03:43:34.680Z,13.01
2018-09-17T03:46:03.190Z,12.93
2018-09-17T03:48:32.737Z,12.93
2018-09-17T03:51:02.050Z,12.91
2018-09-17T03:53:30.882Z,12.92
2018-09-17T03:55:59.764Z,12.96
2018-09-17T03:58:28.947Z,12.94
2018-09-17T04:00:57.504Z,12.95
2018-09-17T04:03:26.185Z,12.97
2018-09-17T04:05:54.717Z,12.98
2018-09-17T04:08:23.206Z,12.97
2018-09-17T04:10:51.722Z,12.96
2018-09-17T04:13:20.265Z,12.97
2018-09-17T04:15:48.789Z,12.96
2018-09-17T04:18:17.237Z,13.03
2018-09-17T04:20:46.295Z,13.01
2018-09-17T04:23:18.945Z,12.97
2018-09-17T04:25:47.489Z,12.97
2018-09-17T04:28:15.986Z,12.91
2018-09-17T04:30:44.429Z,12.86
2018-09-17T04:33:13.005Z,12.84
2018-09-17T04:35:41.493Z,12.80
2018-09-17T04:38:09.996Z,12.75
2018-09-17T04:40:38.442Z,12.67
2018-09-17T04:43:06.958Z,12.61
2018-09-17T04:45:35.406Z,12.56
2018-09-17T04:48:03.927Z,12.71
2018-09-17T04:50:32.458Z,12.71
2018-09-17T04:53:01.057Z,12.72
2018-09-17T04:55:30.001Z,12.78
2018-09-17T04:57:58.503Z,12.79
2018-09-17T05:00:27.057Z,12.79
2018-09-17T05:02:55.562Z,12.78
2018-09-17T05:05:24.006Z,12.77
2018-09-17T05:07:52.462Z,12.80
2018-09-17T05:10:20.966Z,12.89
2018-09-17T05:12:49.772Z,12.94
2018-09-17T05:15:18.318Z,12.99
2018-09-17T05:17:46.869Z,13.04
2018-09-17T05:20:15.305Z,13.03
2018-09-17T05:22:43.757Z,13.01
2018-09-17T05:25:12.272Z,12.98
2018-09-17T05:27:40.723Z,12.97
2018-09-17T05:30:09.225Z,12.92
2018-09-17T05:32:37.750Z,12.89
2018-09-17T05:35:06.289Z,12.83
2018-09-17T05:37:34.761Z,12.88
2018-09-17T05:40:03.319Z,12.92
2018-09-17T05:42:31.798Z,12.93
2018-09-17T05:45:00.386Z,12.97
2018-09-17T05:47:28.885Z,13.14
2018-09-17T05:49:57.403Z,13.13
2018-09-17T05:52:25.842Z,13.16
2018-09-17T05:54:54.349Z,13.22
2018-09-17T05:57:22.811Z,13.28
2018-09-17T05:59:51.321Z,13.31
2018-09-17T06:02:19.778Z,13.37
2018-09-17T06:04:48.885Z,13.44
2018-09-17T06:07:17.365Z,13.54
2018-09-17T06:09:45.909Z,13.64
2018-09-17T06:12:14.312Z,13.77
2018-09-17T06:14:42.885Z,13.92
2018-09-17T06:17:11.350Z,14.03
2018-09-17T06:19:39.771Z,14.11
2018-09-17T06:22:08.261Z,14.21
2018-09-17T06:24:36.754Z,14.29
2018-09-17T06:27:05.277Z,14.37
2018-09-17T06:29:33.717Z,14.44
2018-09-17T06:32:02.186Z,14.59
2018-09-17T06:34:30.832Z,14.73
2018-09-17T06:36:59.461Z,14.84
2018-09-17T06:39:27.957Z,14.95
2018-09-17T06:41:56.582Z,15.09
2018-09-17T06:44:24.964Z,15.21
2018-09-17T06:46:53.442Z,15.34
2018-09-17T06:49:21.976Z,15.45
2018-09-17T06:51:50.766Z,15.57
2018-09-17T06:54:19.229Z,15.68
2018-09-17T06:56:47.757Z,15.79
2018-09-17T06:59:16.213Z,15.87
2018-09-17T07:01:44.738Z,15.98
2018-09-17T07:04:13.150Z,16.12
2018-09-17T07:06:41.662Z,16.25
2018-09-17T07:09:11.539Z,16.38
2018-09-17T07:11:40.051Z,16.49
2018-09-17T07:14:08.700Z,16.66
2018-09-17T07:16:37.263Z,16.80
2018-09-17T07:19:05.957Z,16.94
2018-09-17T07:21:34.390Z,17.11
2018-09-17T07:24:02.872Z,17.27
2018-09-17T07:26:31.449Z,17.46
2018-09-17T07:29:00.834Z,17.60
2018-09-17T07:31:29.530Z,17.76
2018-09-17T07:33:58.230Z,17.92
2018-09-17T07:36:26.902Z,18.05
2018-09-17T07:38:55.330Z,18.21
2018-09-17T07:41:23.785Z,18.41
2018-09-17T07:43:52.366Z,18.51
2018-09-17T07:46:21.053Z,18.63
2018-09-17T07:48:49.430Z,18.69
2018-09-17T07:51:18.053Z,18.94
2018-09-17T07:53:46.510Z,19.06
2018-09-17T07:56:14.997Z,19.20
2018-09-17T07:58:43.612Z,19.33
2018-09-17T08:01:12.148Z,19.44
2018-09-17T08:03:40.608Z,19.59
2018-09-17T08:06:09.106Z,19.77
2018-09-17T08:08:37.561Z,19.94
2018-09-17T08:11:06.078Z,20.00
2018-09-17T08:13:34.529Z,20.10
2018-09-17T08:16:03.001Z,20.21
2018-09-17T08:18:31.504Z,20.31
2018-09-17T08:20:59.999Z,20.45
2018-09-17T08:23:28.554Z,20.61
2018-09-17T08:25:57.046Z,20.71
2018-09-17T08:28:25.534Z,20.75
2018-09-17T08:30:53.994Z,20.89
2018-09-17T08:33:22.486Z,21.04
2018-09-17T08:35:51.018Z,21.14
2018-09-17T08:38:19.519Z,21.29
2018-09-17T08:40:48.149Z,21.52
2018-09-17T08:43:16.621Z,21.56
2018-09-17T08:45:45.087Z,21.69
2018-09-17T08:48:13.590Z,21.79
2018-09-17T08:50:42.461Z,21.93
2018-09-17T08:53:11.043Z,22.05
2018-09-17T08:55:46.990Z,22.19
2018-09-17T08:58:20.617Z,22.37
2018-09-17T09:00:54.127Z,22.42
2018-09-17T09:03:31.729Z,22.54
2018-09-17T09:06:05.735Z,22.72
2018-09-17T09:08:34.234Z,22.89
2018-09-17T09:11:07.993Z,22.93
2018-09-17T09:13:41.757Z,23.10
2018-09-17T09:16:10.270Z,23.18
2018-09-17T09:18:38.698Z,23.28
2018-09-17T09:21:07.174Z,23.52
2018-09-17T09:23:35.698Z,23.73
2018-09-17T09:26:04.246Z,23.87
2018-09-17T09:28:32.718Z,24.02
2018-09-17T09:31:01.408Z,24.26
2018-09-17T09:33:29.885Z,24.52
2018-09-17T09:35:58.319Z,25.28
2018-09-17T09:38:26.862Z,26.02
2018-09-17T09:40:55.409Z,26.60
2018-09-17T09:43:23.966Z,27.45
2018-09-17T09:45:52.513Z,27.45
2018-09-17T09:48:20.982Z,27.95
2018-09-17T09:50:49.486Z,28.28
2018-09-17T09:53:18.048Z,28.69
2018-09-17T09:55:46.553Z,29.21
2018-09-17T09:58:15.008Z,29.65
2018-09-17T10:00:48.602Z,29.52
2018-09-17T10:03:29.433Z,30.03
2018-09-17T10:05:58.352Z,30.40
2018-09-17T10:08:26.897Z,30.30
2018-09-17T10:11:00.595Z,30.65
2018-09-17T10:13:34.323Z,30.98
2018-09-17T10:16:08.209Z,31.60
2018-09-17T10:18:41.808Z,31.71
2018-09-17T10:21:10.277Z,31.95
2018-09-17T10:23:38.734Z,32.27
2018-09-17T10:26:07.197Z,33.10
2018-09-17T10:28:35.689Z,33.11
2018-09-17T10:31:04.254Z,33.01
2018-09-17T10:33:32.682Z,33.19
2018-09-17T10:36:01.342Z,33.73
2018-09-17T10:38:29.873Z,34.29
2018-09-17T10:40:58.364Z,34.56
2018-09-17T10:43:27.077Z,34.28
2018-09-17T10:45:55.597Z,34.85
2018-09-17T10:48:24.134Z,35.11
2018-09-17T10:50:52.730Z,35.48
2018-09-17T10:53:21.277Z,36.11
2018-09-17T10:55:49.753Z,35.86
2018-09-17T10:58:18.226Z,35.93
2018-09-17T11:00:46.681Z,36.14
2018-09-17T11:03:15.317Z,36.58
2018-09-17T11:05:43.901Z,36.58
2018-09-17T11:08:12.440Z,36.76
2018-09-17T11:10:40.968Z,37.15
2018-09-17T11:13:09.427Z,36.24
2018-09-17T11:15:43.109Z,37.64
2018-09-17T11:18:11.735Z,37.26
2018-09-17T11:20:40.294Z,37.92
2018-09-17T11:23:08.802Z,39.04
2018-09-17T11:25:37.284Z,38.73
2018-09-17T11:28:05.953Z,38.26
2018-09-17T11:30:34.596Z,39.07
2018-09-17T11:33:03.151Z,39.98
2018-09-17T11:35:31.857Z,40.30
2018-09-17T11:38:00.541Z,40.51
2018-09-17T11:40:29.093Z,40.81
2018-09-17T11:42:57.533Z,40.61
2018-09-17T11:45:26.109Z,40.36
2018-09-17T11:47:54.590Z,40.90
2018-09-17T11:50:23.098Z,41.59
2018-09-17T11:52:51.644Z,42.41
2018-09-17T11:55:20.122Z,41.68
2018-09-17T11:57:48.644Z,41.83
2018-09-17T12:00:22.323Z,41.65
2018-09-17T12:02:56.046Z,41.83
2018-09-17T12:05:29.790Z,43.18
2018-09-17T12:07:58.266Z,43.05
2018-09-17T12:10:26.799Z,43.75
2018-09-17T12:12:55.284Z,43.25
2018-09-17T12:15:23.757Z,43.34
2018-09-17T12:17:52.246Z,43.03
2018-09-17T12:20:20.697Z,44.11
2018-09-17T12:22:49.202Z,42.90
2018-09-17T12:25:17.670Z,43.74
2018-09-17T12:27:46.129Z,43.65
2018-09-17T12:30:14.526Z,44.06
2018-09-17T12:32:43.042Z,43.78
2018-09-17T12:35:11.506Z,43.65
2018-09-17T12:37:40.116Z,44.31
2018-09-17T12:40:08.554Z,45.10
2018-09-17T12:42:37.069Z,44.44
2018-09-17T12:45:05.986Z,45.59
2018-09-17T12:47:34.476Z,44.49
2018-09-17T12:50:02.897Z,45.31
2018-09-17T12:52:31.390Z,45.16
2018-09-17T12:55:00.034Z,46.15
2018-09-17T12:57:28.527Z,45.57
2018-09-17T12:59:57.109Z,44.98
2018-09-17T13:02:25.676Z,46.49
2018-09-17T13:04:54.154Z,46.57
2018-09-17T13:07:22.630Z,46.01
2018-09-17T13:09:51.145Z,46.80
2018-09-17T13:12:19.797Z,46.21
2018-09-17T13:14:48.290Z,46.48
2018-09-17T13:17:16.725Z,47.84
2018-09-17T13:19:45.177Z,47.56
2018-09-17T13:22:13.681Z,47.17
2018-09-17T13:24:42.152Z,47.22
2018-09-17T13:27:10.650Z,46.35
2018-09-17T13:29:39.241Z,46.88
2018-09-17T13:32:07.864Z,48.35
2018-09-17T13:34:36.167Z,49.33
2018-09-17T13:37:04.769Z,50.09
2018-09-17T13:39:33.270Z,48.96
2018-09-17T13:42:01.933Z,47.98
2018-09-17T13:44:30.500Z,47.69
2018-09-17T13:46:59.053Z,48.38
2018-09-17T13:49:27.557Z,47.45
2018-09-17T13:51:56.439Z,47.72
2018-09-17T13:54:24.915Z,47.32
2018-09-17T13:56:53.611Z,47.88
2018-09-17T13:59:22.083Z,48.28
2018-09-17T14:01:50.670Z,48.76
2018-09-17T14:04:19.179Z,48.51
2018-09-17T14:06:47.565Z,48.91
2018-09-17T14:09:16.087Z,47.11
2018-09-17T14:11:44.588Z,48.22
2018-09-17T14:14:13.030Z,48.35
2018-09-17T14:16:41.488Z,48.29
2018-09-17T14:19:10.019Z,48.55
2018-09-17T14:21:38.486Z,48.22
2018-09-17T14:24:07.047Z,47.72
2018-09-17T14:26:35.600Z,48.34
2018-09-17T14:29:04.142Z,47.55
2018-09-17T14:31:37.878Z,48.12
2018-09-17T14:34:06.336Z,48.31
2018-09-17T14:36:34.777Z,49.25
2018-09-17T14:39:03.395Z,48.08
2018-09-17T14:41:31.839Z,48.18
2018-09-17T14:44:00.879Z,48.30
2018-09-17T14:46:29.667Z,48.59
2018-09-17T14:48:58.079Z,48.73
2018-09-17T14:51:26.578Z,49.07
2018-09-17T14:53:55.224Z,48.08
2018-09-17T14:56:23.693Z,47.55
2018-09-17T14:58:52.220Z,47.07
2018-09-17T15:01:20.824Z,47.90
2018-09-17T15:03:49.216Z,47.23
2018-09-17T15:06:17.746Z,46.89
2018-09-17T15:08:46.234Z,47.07
2018-09-17T15:11:14.725Z,46.88
2018-09-17T15:13:43.987Z,45.57
2018-09-17T15:16:12.478Z,45.76
2018-09-17T15:18:40.917Z,46.05
2018-09-17T15:21:09.386Z,47.10
2018-09-17T15:23:37.926Z,45.93
2018-09-17T15:26:06.447Z,45.08
2018-09-17T15:28:34.936Z,46.16
2018-09-17T15:31:03.513Z,47.17
2018-09-17T15:33:31.936Z,45.91
2018-09-17T15:36:00.518Z,46.36
2018-09-17T15:38:29.086Z,46.51
2018-09-17T15:40:57.602Z,46.47
2018-09-17T15:43:25.993Z,45.49
2018-09-17T15:45:54.546Z,46.26
2018-09-17T15:48:23.008Z,46.76
2018-09-17T15:50:51.506Z,46.93
2018-09-17T15:53:20.120Z,46.93
2018-09-17T15:55:48.593Z,46.53
2018-09-17T15:58:17.134Z,45.99
2018-09-17T16:00:45.643Z,45.44
2018-09-17T16:03:14.069Z,44.56
2018-09-17T16:05:42.718Z,45.61
2018-09-17T16:08:11.183Z,45.35
2018-09-17T16:10:39.657Z,44.26
2018-09-17T16:13:08.113Z,43.22
2018-09-17T16:15:36.924Z,43.38
2018-09-17T16:18:05.455Z,42.73
2018-09-17T16:20:34.033Z,42.88
2018-09-17T16:23:02.612Z,42.40
2018-09-17T16:25:31.119Z,42.40
2018-09-17T16:27:59.819Z,42.35
2018-09-17T16:30:28.321Z,42.37
2018-09-17T16:32:56.807Z,42.65
2018-09-17T16:35:25.340Z,42.86
2018-09-17T16:37:53.781Z,42.50
2018-09-17T16:40:22.873Z,42.59
2018-09-17T16:42:51.389Z,41.66
2018-09-17T16:45:19.818Z,41.03
2018-09-17T16:47:48.377Z,40.45
2018-09-17T16:50:16.908Z,39.09
2018-09-17T16:52:45.428Z,36.37
2018-09-17T16:55:13.823Z,34.36
2018-09-17T16:57:42.338Z,33.11
2018-09-17T17:00:10.851Z,31.83
2018-09-17T17:02:39.402Z,31.03
2018-09-17T17:05:07.894Z,30.38
2018-09-17T17:07:36.370Z,29.84
2018-09-17T17:10:05.052Z,29.40
2018-09-17T17:12:33.538Z,28.92
2018-09-17T17:15:02.271Z,28.55
2018-09-17T17:17:30.720Z,28.12
2018-09-17T17:19:59.306Z,27.75
2018-09-17T17:22:27.866Z,27.55
2018-09-17T17:24:56.346Z,27.23
2018-09-17T17:27:25.142Z,27.02
2018-09-17T17:29:53.650Z,26.72
2018-09-17T17:32:22.148Z,26.40
2018-09-17T17:34:50.558Z,26.08
2018-09-17T17:37:19.013Z,25.85
2018-09-17T17:39:47.672Z,25.62
2018-09-17T17:42:16.030Z,25.42
2018-09-17T17:44:44.551Z,25.28
2018-09-17T17:47:13.021Z,25.24
2018-09-17T17:49:41.582Z,25.15
2018-09-17T17:52:10.067Z,25.01
2018-09-17T17:54:38.686Z,24.81
2018-09-17T17:57:07.141Z,24.66
2018-09-17T17:59:35.722Z,24.55
2018-09-17T18:02:04.201Z,24.41
2018-09-17T18:04:32.657Z,24.28
2018-09-17T18:07:01.484Z,24.20
2018-09-17T18:09:30.145Z,24.18
2018-09-17T18:11:58.592Z,24.18
2018-09-17T18:14:27.123Z,24.07
2018-09-17T18:16:55.838Z,23.96
2018-09-17T18:19:24.261Z,23.95
2018-09-17T18:21:52.883Z,23.94
2018-09-17T18:24:21.328Z,23.91
2018-09-17T18:26:49.810Z,23.83
2018-09-17T18:29:18.298Z,23.79
2018-09-17T18:31:46.768Z,23.72
2018-09-17T18:34:15.265Z,23.70
2018-09-17T18:36:43.793Z,23.76
2018-09-17T18:39:12.404Z,23.86
2018-09-17T18:41:40.790Z,23.79
2018-09-17T18:44:09.294Z,23.82
2018-09-17T18:46:37.785Z,23.80
2018-09-17T18:49:06.306Z,23.74
2018-09-17T18:51:34.710Z,23.59
2018-09-17T18:54:03.258Z,23.39
2018-09-17T18:56:31.751Z,23.21
2018-09-17T18:59:00.466Z,23.08
2018-09-17T19:01:29.169Z,22.95
2018-09-17T19:03:57.722Z,22.91
2018-09-17T19:06:26.117Z,22.93
2018-09-17T19:08:54.643Z,23.00
2018-09-17T19:11:23.184Z,22.94
2018-09-17T19:13:57.010Z,23.00
2018-09-17T19:16:30.851Z,22.93
2018-09-17T19:18:59.452Z,22.84
2018-09-17T19:21:33.178Z,22.82
2018-09-17T19:24:02.845Z,22.94
2018-09-17T19:26:31.364Z,22.95
2018-09-17T19:29:05.359Z,22.87
2018-09-17T19:31:33.801Z,22.85
2018-09-17T19:34:02.428Z,22.98
2018-09-17T19:36:30.944Z,23.01
2018-09-17T19:39:04.821Z,22.94
2018-09-17T19:41:33.405Z,22.87
2018-09-17T19:44:02.093Z,22.68
2018-09-17T19:46:30.589Z,22.56
2018-09-17T19:48:59.146Z,22.44
2018-09-17T19:51:32.810Z,22.25
2018-09-17T19:54:01.622Z,22.17
2018-09-17T19:56:30.108Z,22.15
2018-09-17T19:59:03.933Z,22.17
2018-09-17T20:01:32.381Z,22.13
2018-09-17T20:04:06.439Z,21.99
2018-09-17T20:06:34.948Z,21.82
2018-09-17T20:09:03.513Z,21.75
2018-09-17T20:11:32.042Z,21.73
2018-09-17T20:14:00.719Z,21.72
2018-09-17T20:16:29.334Z,21.84
2018-09-17T20:18:57.896Z,21.85
2018-09-17T20:21:26.423Z,21.84
2018-09-17T20:23:54.959Z,21.78
2018-09-17T20:26:23.941Z,21.79
2018-09-17T20:28:52.440Z,21.77
2018-09-17T20:31:20.930Z,21.71
2018-09-17T20:33:49.383Z,21.71
2018-09-17T20:36:23.508Z,21.70
2018-09-17T20:38:51.995Z,21.65
2018-09-17T20:41:20.453Z,21.57
2018-09-17T20:43:49.084Z,21.62
2018-09-17T20:46:17.565Z,21.68
2018-09-17T20:48:46.031Z,21.73
2018-09-17T20:51:14.465Z,21.90
2018-09-17T20:53:42.962Z,21.75
2018-09-17T20:56:11.530Z,21.71
2018-09-17T20:58:39.921Z,21.77
2018-09-17T21:01:08.790Z,21.88
2018-09-17T21:03:37.166Z,21.92
2018-09-17T21:06:05.689Z,21.93
2018-09-17T21:08:34.186Z,21.79
2018-09-17T21:11:02.785Z,21.62
2018-09-17T21:13:31.340Z,21.62
2018-09-17T21:16:00.018Z,21.45
2018-09-17T21:18:28.561Z,21.30
2018-09-17T21:20:57.096Z,21.12
2018-09-17T21:23:25.534Z,20.91
2018-09-17T21:25:54.127Z,20.78
2018-09-17T21:28:22.587Z,20.81
2018-09-17T21:30:51.088Z,20.94
2018-09-17T21:33:19.461Z,20.96
2018-09-17T21:35:47.958Z,21.00
2018-09-17T21:38:16.418Z,21.12
2018-09-17T21:40:44.998Z,21.10
2018-09-17T21:43:13.455Z,21.13
2018-09-17T21:45:41.971Z,21.07
2018-09-17T21:48:10.469Z,21.04
2018-09-17T21:50:38.957Z,21.13
2018-09-17T21:53:07.758Z,21.21
2018-09-17T21:55:36.254Z,21.11
2018-09-17T21:58:04.958Z,20.92
2018-09-17T22:00:38.664Z,20.83
2018-09-17T22:03:07.078Z,20.90
2018-09-17T22:05:35.578Z,20.74
2018-09-17T22:08:04.045Z,20.55
2018-09-17T22:10:32.665Z,20.57
2018-09-17T22:13:01.514Z,20.47
2018-09-17T22:15:30.522Z,20.35
2018-09-17T22:17:59.050Z,20.19
2018-09-17T22:20:27.713Z,20.49
2018-09-17T22:22:56.154Z,20.73
2018-09-17T22:25:24.649Z,20.68
2018-09-17T22:27:53.138Z,20.36
2018-09-17T22:30:21.618Z,20.03
2018-09-17T22:32:50.106Z,19.76
2018-09-17T22:35:18.548Z,19.53
2018-09-17T22:37:47.014Z,19.34
2018-09-17T22:40:15.542Z,19.14
2018-09-17T22:42:44.235Z,19.05
2018-09-17T22:45:12.705Z,18.93
2018-09-17T22:47:41.288Z,18.81
2018-09-17T22:50:09.773Z,18.81
2018-09-17T22:52:38.277Z,18.76
2018-09-17T22:55:06.830Z,18.74
2018-09-17T22:57:36.392Z,18.70
2018-09-17T23:00:08.108Z,18.67
2018-09-17T23:02:39.148Z,18.74
2018-09-17T23:05:11.125Z,18.93
2018-09-17T23:07:40.479Z,19.05
2018-09-17T23:10:09.817Z,19.31
2018-09-17T23:12:38.314Z,19.36
2018-09-17T23:15:08.093Z,19.29
2018-09-17T23:17:36.604Z,19.07
2018-09-17T23:20:05.225Z,18.88
2018-09-17T23:22:33.685Z,18.67
2018-09-17T23:25:02.290Z,18.50
2018-09-17T23:27:30.965Z,18.42
2018-09-17T23:29:59.403Z,18.26
2018-09-17T23:32:27.956Z,18.21
2018-09-17T23:34:56.354Z,18.03
2018-09-17T23:37:24.870Z,17.90
2018-09-17T23:39:53.334Z,17.86
2018-09-17T23:42:21.824Z,17.72
2018-09-17T23:44:50.293Z,17.62
2018-09-17T23:47:18.815Z,17.62
2018-09-17T23:49:47.245Z,17.49
2018-09-17T23:52:15.739Z,17.44
2018-09-17T23:54:44.225Z,17.45
2018-09-17T23:57:12.697Z,17.43
2018-09-17T23:59:41.202Z,17.35
